sensor_id;sensor_type;location;lat;lon;timestamp;pressure;altitude;pressure_sealevel;temperature;humidity
30708;BME280;17458;48.958;8.284;2022-10-30T00:00:52;100715.34;;;15.69;88.18
30708;BME280;17458;48.958;8.284;2022-10-30T00:03:36;100718.38;;;15.79;87.97
30708;BME280;17458;48.958;8.284;2022-10-30T00:06:20;100716.63;;;15.80;88.23
30708;BME280;17458;48.958;8.284;2022-10-30T00:09:04;100717.72;;;15.86;87.79
30708;BME280;17458;48.958;8.284;2022-10-30T00:11:48;100720.53;;;15.89;87.52
30708;BME280;17458;48.958;8.284;2022-10-30T00:14:32;100719.53;;;15.86;87.70
30708;BME280;17458;48.958;8.284;2022-10-30T00:17:17;100709.69;;;15.85;87.52
30708;BME280;17458;48.958;8.284;2022-10-30T00:20:01;100704.16;;;15.80;87.51
30708;BME280;17458;48.958;8.284;2022-10-30T00:22:45;100715.72;;;15.79;87.79
30708;BME280;17458;48.958;8.284;2022-10-30T00:25:29;100717.69;;;15.59;88.49
30708;BME280;17458;48.958;8.284;2022-10-30T00:28:13;100720.88;;;15.25;92.17
30708;BME280;17458;48.958;8.284;2022-10-30T00:30:59;100717.97;;;15.43;90.81
30708;BME280;17458;48.958;8.284;2022-10-30T00:33:43;100720.88;;;15.25;92.33
30708;BME280;17458;48.958;8.284;2022-10-30T00:36:27;100716.22;;;15.44;91.99
30708;BME280;17458;48.958;8.284;2022-10-30T00:39:11;100709.94;;;15.43;91.56
30708;BME280;17458;48.958;8.284;2022-10-30T00:41:55;100712.19;;;15.55;90.57
30708;BME280;17458;48.958;8.284;2022-10-30T00:44:45;100717.34;;;15.50;90.62
30708;BME280;17458;48.958;8.284;2022-10-30T00:47:33;100714.88;;;15.55;90.71
30708;BME280;17458;48.958;8.284;2022-10-30T00:50:25;100692.50;;;15.54;90.09
30708;BME280;17458;48.958;8.284;2022-10-30T00:53:14;100700.69;;;15.57;89.88
30708;BME280;17458;48.958;8.284;2022-10-30T00:56:02;100695.19;;;15.54;89.51
30708;BME280;17458;48.958;8.284;2022-10-30T01:02:05;100692.59;;;15.56;88.60
30708;BME280;17458;48.958;8.284;2022-10-30T01:04:50;100688.28;;;15.61;88.28
30708;BME280;17458;48.958;8.284;2022-10-30T01:07:35;100689.06;;;15.57;87.83
30708;BME280;17458;48.958;8.284;2022-10-30T01:10:21;100697.22;;;15.62;87.95
30708;BME280;17458;48.958;8.284;2022-10-30T01:13:05;100693.03;;;15.68;88.02
30708;BME280;17458;48.958;8.284;2022-10-30T01:16:03;100687.97;;;15.77;87.89
30708;BME280;17458;48.958;8.284;2022-10-30T01:19:02;100693.38;;;15.79;87.63
30708;BME280;17458;48.958;8.284;2022-10-30T01:27:39;100683.13;;;15.92;87.04
30708;BME280;17458;48.958;8.284;2022-10-30T01:33:53;100688.06;;;15.80;87.10
30708;BME280;17458;48.958;8.284;2022-10-30T01:36:54;100693.50;;;15.82;87.32
30708;BME280;17458;48.958;8.284;2022-10-30T01:39:40;100686.81;;;15.69;87.53
30708;BME280;17458;48.958;8.284;2022-10-30T01:42:44;100692.47;;;15.78;87.25
30708;BME280;17458;48.958;8.284;2022-10-30T02:00:30;100679.81;;;15.49;86.82
30708;BME280;17458;48.958;8.284;2022-10-30T02:03:14;100679.63;;;15.44;86.81
30708;BME280;17458;48.958;8.284;2022-10-30T02:05:59;100669.75;;;15.42;86.73
30708;BME280;17458;48.958;8.284;2022-10-30T02:08:44;100670.91;;;15.24;86.88
30708;BME280;17458;48.958;8.284;2022-10-30T02:11:30;100668.66;;;15.37;86.29
30708;BME280;17458;48.958;8.284;2022-10-30T02:14:20;100679.63;;;14.95;86.85
30708;BME280;17458;48.958;8.284;2022-10-30T02:17:07;100674.22;;;14.94;88.34
30708;BME280;17458;48.958;8.284;2022-10-30T02:19:52;100682.16;;;14.92;87.90
30708;BME280;17458;48.958;8.284;2022-10-30T02:22:36;100681.66;;;14.78;88.09
30708;BME280;17458;48.958;8.284;2022-10-30T02:25:21;100673.09;;;14.87;88.21
30708;BME280;17458;48.958;8.284;2022-10-30T02:28:04;100676.31;;;14.78;87.94
30708;BME280;17458;48.958;8.284;2022-10-30T02:30:48;100679.44;;;14.67;88.55
30708;BME280;17458;48.958;8.284;2022-10-30T02:33:32;100663.56;;;14.71;88.49
30708;BME280;17458;48.958;8.284;2022-10-30T02:36:16;100672.97;;;14.62;88.34
30708;BME280;17458;48.958;8.284;2022-10-30T02:39:00;100665.88;;;14.62;88.20
30708;BME280;17458;48.958;8.284;2022-10-30T02:41:44;100668.78;;;14.46;89.21
30708;BME280;17458;48.958;8.284;2022-10-30T02:44:29;100667.00;;;14.45;89.04
30708;BME280;17458;48.958;8.284;2022-10-30T02:47:13;100663.63;;;14.50;88.56
30708;BME280;17458;48.958;8.284;2022-10-30T02:49:57;100670.47;;;14.42;88.25
30708;BME280;17458;48.958;8.284;2022-10-30T02:52:41;100669.13;;;14.33;88.79
30708;BME280;17458;48.958;8.284;2022-10-30T02:55:26;100670.03;;;14.33;88.18
30708;BME280;17458;48.958;8.284;2022-10-30T02:58:11;100666.81;;;14.40;87.68
30708;BME280;17458;48.958;8.284;2022-10-30T03:00:56;100668.28;;;14.34;87.38
30708;BME280;17458;48.958;8.284;2022-10-30T03:03:41;100662.16;;;14.36;87.20
30708;BME280;17458;48.958;8.284;2022-10-30T03:06:25;100663.38;;;14.22;86.82
30708;BME280;17458;48.958;8.284;2022-10-30T03:09:09;100681.66;;;13.91;88.86
30708;BME280;17458;48.958;8.284;2022-10-30T03:11:54;100671.44;;;14.01;87.98
30708;BME280;17458;48.958;8.284;2022-10-30T03:14:40;100671.38;;;13.79;88.46
30708;BME280;17458;48.958;8.284;2022-10-30T03:17:24;100673.34;;;13.83;88.36
30708;BME280;17458;48.958;8.284;2022-10-30T03:20:08;100668.25;;;13.89;88.23
30708;BME280;17458;48.958;8.284;2022-10-30T03:22:53;100668.13;;;13.86;87.84
30708;BME280;17458;48.958;8.284;2022-10-30T03:25:37;100669.03;;;13.87;88.24
30708;BME280;17458;48.958;8.284;2022-10-30T03:28:22;100667.03;;;13.60;88.71
30708;BME280;17458;48.958;8.284;2022-10-30T03:31:13;100676.78;;;13.80;88.07
30708;BME280;17458;48.958;8.284;2022-10-30T03:33:57;100671.66;;;13.85;87.35
30708;BME280;17458;48.958;8.284;2022-10-30T03:36:42;100676.19;;;13.88;86.87
30708;BME280;17458;48.958;8.284;2022-10-30T03:39:25;100679.91;;;13.70;87.60
30708;BME280;17458;48.958;8.284;2022-10-30T03:42:10;100670.28;;;13.74;87.56
30708;BME280;17458;48.958;8.284;2022-10-30T03:44:54;100679.78;;;13.67;86.96
30708;BME280;17458;48.958;8.284;2022-10-30T03:47:39;100666.53;;;13.49;87.35
30708;BME280;17458;48.958;8.284;2022-10-30T03:50:25;100677.50;;;13.56;87.56
30708;BME280;17458;48.958;8.284;2022-10-30T03:53:10;100674.38;;;13.45;87.53
30708;BME280;17458;48.958;8.284;2022-10-30T03:56:00;100671.81;;;13.48;87.46
30708;BME280;17458;48.958;8.284;2022-10-30T03:58:51;100672.56;;;13.44;87.59
30708;BME280;17458;48.958;8.284;2022-10-30T04:01:39;100669.28;;;13.51;86.94
30708;BME280;17458;48.958;8.284;2022-10-30T04:04:22;100674.78;;;13.35;87.02
30708;BME280;17458;48.958;8.284;2022-10-30T04:07:07;100672.47;;;13.42;87.52
30708;BME280;17458;48.958;8.284;2022-10-30T04:09:51;100664.34;;;13.39;86.81
30708;BME280;17458;48.958;8.284;2022-10-30T04:12:35;100666.94;;;13.38;86.89
30708;BME280;17458;48.958;8.284;2022-10-30T04:15:19;100674.69;;;13.32;87.51
30708;BME280;17458;48.958;8.284;2022-10-30T04:18:03;100668.06;;;13.43;86.98
30708;BME280;17458;48.958;8.284;2022-10-30T04:20:48;100665.34;;;13.22;86.41
30708;BME280;17458;48.958;8.284;2022-10-30T04:23:32;100661.97;;;13.26;86.59
30708;BME280;17458;48.958;8.284;2022-10-30T04:26:17;100669.78;;;13.22;86.58
30708;BME280;17458;48.958;8.284;2022-10-30T04:29:02;100666.09;;;13.18;86.70
30708;BME280;17458;48.958;8.284;2022-10-30T04:31:46;100664.44;;;13.22;86.44
30708;BME280;17458;48.958;8.284;2022-10-30T04:34:31;100673.69;;;13.10;86.83
30708;BME280;17458;48.958;8.284;2022-10-30T04:37:15;100677.22;;;12.90;86.82
30708;BME280;17458;48.958;8.284;2022-10-30T04:40:00;100661.50;;;12.96;87.26
30708;BME280;17458;48.958;8.284;2022-10-30T04:42:50;100661.00;;;13.05;86.77
30708;BME280;17458;48.958;8.284;2022-10-30T04:45:34;100669.41;;;12.95;86.87
30708;BME280;17458;48.958;8.284;2022-10-30T04:48:21;100663.31;;;12.97;86.81
30708;BME280;17458;48.958;8.284;2022-10-30T04:51:04;100673.66;;;12.90;87.24
30708;BME280;17458;48.958;8.284;2022-10-30T04:53:49;100669.41;;;12.95;86.79
30708;BME280;17458;48.958;8.284;2022-10-30T04:56:33;100660.72;;;12.99;86.63
30708;BME280;17458;48.958;8.284;2022-10-30T04:59:18;100659.47;;;12.91;86.44
30708;BME280;17458;48.958;8.284;2022-10-30T05:02:02;100658.56;;;12.90;86.83
30708;BME280;17458;48.958;8.284;2022-10-30T05:04:46;100658.50;;;12.89;86.61
30708;BME280;17458;48.958;8.284;2022-10-30T05:07:30;100653.16;;;12.89;86.67
30708;BME280;17458;48.958;8.284;2022-10-30T05:10:14;100646.47;;;12.79;86.25
30708;BME280;17458;48.958;8.284;2022-10-30T05:12:59;100651.09;;;12.64;87.35
30708;BME280;17458;48.958;8.284;2022-10-30T05:15:43;100645.91;;;12.67;86.96
30708;BME280;17458;48.958;8.284;2022-10-30T05:18:27;100639.31;;;12.78;86.75
30708;BME280;17458;48.958;8.284;2022-10-30T05:21:11;100652.66;;;12.78;86.34
30708;BME280;17458;48.958;8.284;2022-10-30T05:23:56;100652.78;;;12.81;85.84
30708;BME280;17458;48.958;8.284;2022-10-30T05:26:42;100645.47;;;12.75;85.41
30708;BME280;17458;48.958;8.284;2022-10-30T05:29:25;100643.47;;;12.71;85.02
30708;BME280;17458;48.958;8.284;2022-10-30T05:32:09;100654.75;;;12.66;85.20
30708;BME280;17458;48.958;8.284;2022-10-30T05:34:56;100652.44;;;12.54;85.66
30708;BME280;17458;48.958;8.284;2022-10-30T05:37:41;100659.97;;;12.63;85.53
30708;BME280;17458;48.958;8.284;2022-10-30T05:40:25;100661.66;;;12.61;85.41
30708;BME280;17458;48.958;8.284;2022-10-30T05:43:09;100664.16;;;12.58;85.26
30708;BME280;17458;48.958;8.284;2022-10-30T05:45:53;100663.25;;;12.57;85.52
30708;BME280;17458;48.958;8.284;2022-10-30T05:48:37;100665.06;;;12.58;85.52
30708;BME280;17458;48.958;8.284;2022-10-30T05:51:22;100657.31;;;12.63;85.14
30708;BME280;17458;48.958;8.284;2022-10-30T05:54:10;100660.00;;;12.45;85.01
30708;BME280;17458;48.958;8.284;2022-10-30T05:57:00;100665.69;;;12.33;85.12
30708;BME280;17458;48.958;8.284;2022-10-30T05:59:44;100663.97;;;12.35;84.80
30708;BME280;17458;48.958;8.284;2022-10-30T06:02:28;100674.50;;;12.32;85.22
30708;BME280;17458;48.958;8.284;2022-10-30T06:05:12;100669.75;;;12.45;84.30
30708;BME280;17458;48.958;8.284;2022-10-30T06:07:56;100666.78;;;12.38;84.06
30708;BME280;17458;48.958;8.284;2022-10-30T06:10:40;100682.91;;;12.41;83.88
30708;BME280;17458;48.958;8.284;2022-10-30T06:13:34;100682.84;;;12.40;83.52
30708;BME280;17458;48.958;8.284;2022-10-30T06:16:23;100688.84;;;12.36;83.85
30708;BME280;17458;48.958;8.284;2022-10-30T06:19:27;100690.41;;;12.31;84.34
30708;BME280;17458;48.958;8.284;2022-10-30T06:22:19;100679.00;;;12.33;84.61
30708;BME280;17458;48.958;8.284;2022-10-30T06:25:14;100689.38;;;12.47;83.59
30708;BME280;17458;48.958;8.284;2022-10-30T06:28:20;100691.41;;;12.52;83.26
30708;BME280;17458;48.958;8.284;2022-10-30T06:31:04;100691.94;;;12.63;83.18
30708;BME280;17458;48.958;8.284;2022-10-30T06:33:49;100697.81;;;12.56;83.15
30708;BME280;17458;48.958;8.284;2022-10-30T06:36:34;100702.38;;;12.58;83.42
30708;BME280;17458;48.958;8.284;2022-10-30T06:39:19;100688.28;;;12.61;83.43
30708;BME280;17458;48.958;8.284;2022-10-30T06:42:33;100692.97;;;12.66;83.35
30708;BME280;17458;48.958;8.284;2022-10-30T06:45:37;100687.94;;;12.72;82.68
30708;BME280;17458;48.958;8.284;2022-10-30T06:48:21;100699.31;;;12.88;81.79
30708;BME280;17458;48.958;8.284;2022-10-30T06:51:10;100694.97;;;12.90;82.17
30708;BME280;17458;48.958;8.284;2022-10-30T06:53:56;100691.56;;;12.94;82.28
30708;BME280;17458;48.958;8.284;2022-10-30T06:57:10;100697.63;;;12.90;82.91
30708;BME280;17458;48.958;8.284;2022-10-30T06:59:54;100692.72;;;12.99;82.88
30708;BME280;17458;48.958;8.284;2022-10-30T07:02:44;100692.28;;;13.09;82.88
30708;BME280;17458;48.958;8.284;2022-10-30T07:05:30;100691.75;;;13.16;82.65
30708;BME280;17458;48.958;8.284;2022-10-30T07:08:15;100687.53;;;13.21;82.77
30708;BME280;17458;48.958;8.284;2022-10-30T07:11:00;100694.91;;;13.27;82.53
30708;BME280;17458;48.958;8.284;2022-10-30T07:14:05;100697.19;;;13.38;82.74
30708;BME280;17458;48.958;8.284;2022-10-30T07:16:59;100699.91;;;13.59;82.46
30708;BME280;17458;48.958;8.284;2022-10-30T07:19:45;100698.22;;;13.61;81.71
30708;BME280;17458;48.958;8.284;2022-10-30T07:22:29;100694.75;;;13.84;81.76
30708;BME280;17458;48.958;8.284;2022-10-30T07:25:14;100699.13;;;14.03;81.30
30708;BME280;17458;48.958;8.284;2022-10-30T07:28:09;100690.44;;;14.09;81.35
30708;BME280;17458;48.958;8.284;2022-10-30T07:30:58;100693.22;;;14.12;81.91
30708;BME280;17458;48.958;8.284;2022-10-30T07:34:17;100696.81;;;14.35;81.84
30708;BME280;17458;48.958;8.284;2022-10-30T07:37:21;100703.66;;;14.49;81.52
30708;BME280;17458;48.958;8.284;2022-10-30T07:40:13;100708.28;;;14.53;81.57
30708;BME280;17458;48.958;8.284;2022-10-30T07:43:03;100712.41;;;14.67;81.66
30708;BME280;17458;48.958;8.284;2022-10-30T07:45:54;100713.34;;;14.92;80.94
30708;BME280;17458;48.958;8.284;2022-10-30T07:48:57;100714.06;;;15.10;80.44
30708;BME280;17458;48.958;8.284;2022-10-30T07:52:05;100713.91;;;15.29;79.87
30708;BME280;17458;48.958;8.284;2022-10-30T07:54:49;100715.53;;;15.25;80.05
30708;BME280;17458;48.958;8.284;2022-10-30T07:57:52;100720.09;;;15.28;80.89
30708;BME280;17458;48.958;8.284;2022-10-30T08:00:55;100729.47;;;15.41;81.11
30708;BME280;17458;48.958;8.284;2022-10-30T08:03:46;100731.06;;;15.59;81.36
30708;BME280;17458;48.958;8.284;2022-10-30T08:06:44;100726.25;;;15.75;81.74
30708;BME280;17458;48.958;8.284;2022-10-30T08:09:29;100729.53;;;15.91;80.86
30708;BME280;17458;48.958;8.284;2022-10-30T08:12:12;100730.00;;;16.05;80.46
30708;BME280;17458;48.958;8.284;2022-10-30T08:14:57;100732.34;;;16.21;79.63
30708;BME280;17458;48.958;8.284;2022-10-30T08:17:43;100728.56;;;16.43;79.18
30708;BME280;17458;48.958;8.284;2022-10-30T08:20:28;100733.06;;;16.44;77.57
30708;BME280;17458;48.958;8.284;2022-10-30T08:23:11;100733.38;;;16.53;77.37
30708;BME280;17458;48.958;8.284;2022-10-30T08:25:56;100731.22;;;16.69;76.59
30708;BME280;17458;48.958;8.284;2022-10-30T08:28:42;100743.28;;;16.83;76.52
30708;BME280;17458;48.958;8.284;2022-10-30T08:31:28;100736.31;;;16.89;76.06
30708;BME280;17458;48.958;8.284;2022-10-30T08:34:19;100737.91;;;17.11;75.38
30708;BME280;17458;48.958;8.284;2022-10-30T08:37:05;100725.00;;;17.29;75.20
30708;BME280;17458;48.958;8.284;2022-10-30T08:39:52;100734.19;;;17.38;74.93
30708;BME280;17458;48.958;8.284;2022-10-30T08:42:52;100731.31;;;17.31;75.04
30708;BME280;17458;48.958;8.284;2022-10-30T08:45:36;100738.00;;;17.46;75.04
30708;BME280;17458;48.958;8.284;2022-10-30T08:48:26;100731.28;;;17.61;75.92
30708;BME280;17458;48.958;8.284;2022-10-30T08:51:11;100737.97;;;17.76;75.50
30708;BME280;17458;48.958;8.284;2022-10-30T08:54:01;100735.59;;;17.88;74.92
30708;BME280;17458;48.958;8.284;2022-10-30T08:56:45;100737.16;;;18.13;73.12
30708;BME280;17458;48.958;8.284;2022-10-30T08:59:30;100740.22;;;18.28;72.69
30708;BME280;17458;48.958;8.284;2022-10-30T09:02:16;100742.28;;;18.38;71.72
30708;BME280;17458;48.958;8.284;2022-10-30T09:05:36;100731.00;;;18.53;71.18
30708;BME280;17458;48.958;8.284;2022-10-30T09:08:35;100734.25;;;18.75;70.58
30708;BME280;17458;48.958;8.284;2022-10-30T09:11:29;100736.19;;;18.83;69.92
30708;BME280;17458;48.958;8.284;2022-10-30T09:14:14;100736.16;;;18.81;68.71
30708;BME280;17458;48.958;8.284;2022-10-30T09:16:58;100742.03;;;19.02;68.48
30708;BME280;17458;48.958;8.284;2022-10-30T09:19:42;100738.72;;;19.16;67.58
30708;BME280;17458;48.958;8.284;2022-10-30T09:22:30;100741.41;;;19.16;68.74
30708;BME280;17458;48.958;8.284;2022-10-30T09:25:15;100737.09;;;19.24;66.92
30708;BME280;17458;48.958;8.284;2022-10-30T09:28:09;100740.97;;;19.38;66.57
30708;BME280;17458;48.958;8.284;2022-10-30T09:31:13;100736.91;;;19.57;65.78
30708;BME280;17458;48.958;8.284;2022-10-30T09:33:57;100733.94;;;19.44;65.77
30708;BME280;17458;48.958;8.284;2022-10-30T09:37:07;100741.69;;;19.71;66.28
30708;BME280;17458;48.958;8.284;2022-10-30T09:39:54;100728.63;;;19.94;64.91
30708;BME280;17458;48.958;8.284;2022-10-30T09:42:46;100734.50;;;20.20;64.33
30708;BME280;17458;48.958;8.284;2022-10-30T09:45:54;100732.03;;;20.35;63.34
30708;BME280;17458;48.958;8.284;2022-10-30T09:49:00;100732.44;;;20.04;63.05
30708;BME280;17458;48.958;8.284;2022-10-30T09:52:07;100741.72;;;20.23;63.82
30708;BME280;17458;48.958;8.284;2022-10-30T09:55:17;100739.16;;;20.30;63.00
30708;BME280;17458;48.958;8.284;2022-10-30T10:07:21;100735.59;;;20.87;61.46
30708;BME280;17458;48.958;8.284;2022-10-30T10:13:39;100734.19;;;21.15;61.83
30708;BME280;17458;48.958;8.284;2022-10-30T10:16:30;100738.50;;;21.01;62.12
30708;BME280;17458;48.958;8.284;2022-10-30T10:19:27;100737.97;;;21.26;61.93
30708;BME280;17458;48.958;8.284;2022-10-30T10:25:11;100737.31;;;21.48;61.38
30708;BME280;17458;48.958;8.284;2022-10-30T10:34:26;100732.09;;;21.61;61.39
30708;BME280;17458;48.958;8.284;2022-10-30T10:52:20;100720.09;;;22.23;60.56
30708;BME280;17458;48.958;8.284;2022-10-30T10:55:14;100715.88;;;22.57;59.38
30708;BME280;17458;48.958;8.284;2022-10-30T10:58:06;100716.91;;;22.76;59.49
30708;BME280;17458;48.958;8.284;2022-10-30T11:00:51;100716.09;;;22.88;59.05
30708;BME280;17458;48.958;8.284;2022-10-30T11:03:59;100725.13;;;22.91;59.40
30708;BME280;17458;48.958;8.284;2022-10-30T11:06:48;100714.91;;;22.49;58.33
30708;BME280;17458;48.958;8.284;2022-10-30T11:09:33;100708.69;;;22.59;59.33
30708;BME280;17458;48.958;8.284;2022-10-30T11:12:35;100704.34;;;22.86;58.73
30708;BME280;17458;48.958;8.284;2022-10-30T11:15:36;100707.03;;;22.81;56.99
30708;BME280;17458;48.958;8.284;2022-10-30T11:18:23;100706.00;;;22.69;57.98
30708;BME280;17458;48.958;8.284;2022-10-30T11:21:09;100712.38;;;22.74;58.68
30708;BME280;17458;48.958;8.284;2022-10-30T11:23:54;100713.19;;;22.59;58.79
30708;BME280;17458;48.958;8.284;2022-10-30T11:26:39;100705.03;;;22.56;59.38
30708;BME280;17458;48.958;8.284;2022-10-30T11:29:26;100711.25;;;22.43;59.54
30708;BME280;17458;48.958;8.284;2022-10-30T11:32:17;100704.94;;;22.44;59.57
30708;BME280;17458;48.958;8.284;2022-10-30T11:35:12;100708.75;;;22.70;58.84
30708;BME280;17458;48.958;8.284;2022-10-30T11:38:12;100716.16;;;22.98;57.51
30708;BME280;17458;48.958;8.284;2022-10-30T11:40:57;100710.78;;;23.06;57.17
30708;BME280;17458;48.958;8.284;2022-10-30T11:43:44;100708.13;;;23.21;56.67
30708;BME280;17458;48.958;8.284;2022-10-30T11:46:29;100704.59;;;23.47;56.29
30708;BME280;17458;48.958;8.284;2022-10-30T11:49:37;100705.59;;;23.73;55.00
30708;BME280;17458;48.958;8.284;2022-10-30T11:52:24;100706.56;;;23.84;55.18
30708;BME280;17458;48.958;8.284;2022-10-30T11:55:19;100702.03;;;23.95;55.01
30708;BME280;17458;48.958;8.284;2022-10-30T11:58:06;100705.59;;;23.55;55.96
30708;BME280;17458;48.958;8.284;2022-10-30T12:04:21;100700.25;;;24.11;54.23
30708;BME280;17458;48.958;8.284;2022-10-30T12:10:22;100696.63;;;23.95;54.28
30708;BME280;17458;48.958;8.284;2022-10-30T12:13:12;100703.81;;;23.77;54.50
30708;BME280;17458;48.958;8.284;2022-10-30T12:16:04;100700.22;;;23.81;53.09
30708;BME280;17458;48.958;8.284;2022-10-30T12:19:04;100695.72;;;23.86;53.85
30708;BME280;17458;48.958;8.284;2022-10-30T12:21:51;100683.94;;;24.16;54.45
30708;BME280;17458;48.958;8.284;2022-10-30T12:24:37;100681.28;;;24.26;53.14
30708;BME280;17458;48.958;8.284;2022-10-30T12:27:22;100681.28;;;24.26;52.21
30708;BME280;17458;48.958;8.284;2022-10-30T12:30:15;100674.97;;;24.23;51.52
30708;BME280;17458;48.958;8.284;2022-10-30T12:33:13;100671.31;;;24.22;52.63
30708;BME280;17458;48.958;8.284;2022-10-30T12:35:59;100667.69;;;24.46;52.45
30708;BME280;17458;48.958;8.284;2022-10-30T12:39:02;100663.16;;;24.44;53.45
30708;BME280;17458;48.958;8.284;2022-10-30T12:41:58;100668.59;;;24.44;52.91
30708;BME280;17458;48.958;8.284;2022-10-30T12:47:56;100668.56;;;24.66;52.43
30708;BME280;17458;48.958;8.284;2022-10-30T12:51:03;100664.03;;;24.65;51.66
30708;BME280;17458;48.958;8.284;2022-10-30T12:54:01;100659.50;;;24.67;51.47
30708;BME280;17458;48.958;8.284;2022-10-30T12:56:59;100656.75;;;24.81;52.29
30708;BME280;17458;48.958;8.284;2022-10-30T13:03:12;100650.41;;;24.84;50.90
30708;BME280;17458;48.958;8.284;2022-10-30T13:06:13;100644.13;;;24.69;51.68
30708;BME280;17458;48.958;8.284;2022-10-30T13:09:15;100652.22;;;24.76;51.81
30708;BME280;17458;48.958;8.284;2022-10-30T13:12:27;100642.25;;;24.81;50.51
30708;BME280;17458;48.958;8.284;2022-10-30T13:15:28;100642.22;;;24.87;51.39
30708;BME280;17458;48.958;8.284;2022-10-30T13:18:21;100642.31;;;24.70;52.34
30708;BME280;17458;48.958;8.284;2022-10-30T13:24:02;100642.28;;;24.76;51.70
30708;BME280;17458;48.958;8.284;2022-10-30T13:26:52;100639.63;;;24.50;51.03
30708;BME280;17458;48.958;8.284;2022-10-30T13:29:56;100641.41;;;24.60;51.28
30708;BME280;17458;48.958;8.284;2022-10-30T13:36:24;100636.03;;;24.33;52.15
30708;BME280;17458;48.958;8.284;2022-10-30T13:43:12;100632.41;;;24.20;52.44
30708;BME280;17458;48.958;8.284;2022-10-30T13:51:40;100626.06;;;24.21;52.98
30708;BME280;17458;48.958;8.284;2022-10-30T13:54:39;100638.72;;;24.04;53.29
30708;BME280;17458;48.958;8.284;2022-10-30T13:57:33;100636.03;;;24.13;54.78
30708;BME280;17458;48.958;8.284;2022-10-30T14:06:34;100628.78;;;23.79;56.12
30708;BME280;17458;48.958;8.284;2022-10-30T14:09:34;100637.84;;;23.72;56.38
30708;BME280;17458;48.958;8.284;2022-10-30T14:15:43;100632.41;;;23.76;57.29
30708;BME280;17458;48.958;8.284;2022-10-30T14:18:31;100638.72;;;23.69;57.12
30708;BME280;17458;48.958;8.284;2022-10-30T14:21:36;100635.03;;;23.46;57.74
30708;BME280;17458;48.958;8.284;2022-10-30T14:24:33;100634.78;;;22.77;59.87
30708;BME280;17458;48.958;8.284;2022-10-30T14:27:24;100637.66;;;23.18;58.92
30708;BME280;17458;48.958;8.284;2022-10-30T14:30:18;100634.97;;;23.30;58.35
30708;BME280;17458;48.958;8.284;2022-10-30T14:33:03;100645.00;;;23.44;58.19
30708;BME280;17458;48.958;8.284;2022-10-30T14:36:20;100637.72;;;23.33;58.27
30708;BME280;17458;48.958;8.284;2022-10-30T14:42:04;100634.91;;;23.03;58.71
30708;BME280;17458;48.958;8.284;2022-10-30T14:45:11;100629.47;;;22.98;58.60
30708;BME280;17458;48.958;8.284;2022-10-30T14:51:20;100627.81;;;23.42;58.53
30708;BME280;17458;48.958;8.284;2022-10-30T14:54:18;100627.78;;;23.34;58.72
30708;BME280;17458;48.958;8.284;2022-10-30T14:57:24;100633.09;;;23.02;60.50
30708;BME280;17458;48.958;8.284;2022-10-30T15:06:40;100639.41;;;23.04;60.41
30708;BME280;17458;48.958;8.284;2022-10-30T15:16:18;100629.44;;;22.91;61.78
30708;BME280;17458;48.958;8.284;2022-10-30T15:19:05;100618.59;;;22.89;61.85
30708;BME280;17458;48.958;8.284;2022-10-30T15:21:54;100628.53;;;22.86;62.04
30708;BME280;17458;48.958;8.284;2022-10-30T15:24:39;100624.72;;;22.61;62.80
30708;BME280;17458;48.958;8.284;2022-10-30T15:27:24;100624.72;;;22.55;62.76
30708;BME280;17458;48.958;8.284;2022-10-30T15:30:15;100621.06;;;22.50;64.03
30708;BME280;17458;48.958;8.284;2022-10-30T15:32:59;100631.81;;;22.38;64.90
30708;BME280;17458;48.958;8.284;2022-10-30T15:35:46;100624.53;;;22.26;65.05
30708;BME280;17458;48.958;8.284;2022-10-30T15:38:30;100629.00;;;22.16;66.24
30708;BME280;17458;48.958;8.284;2022-10-30T15:41:15;100621.69;;;22.09;66.38
30708;BME280;17458;48.958;8.284;2022-10-30T15:43:59;100625.09;;;21.87;66.80
30708;BME280;17458;48.958;8.284;2022-10-30T15:46:48;100627.44;;;21.46;69.53
30708;BME280;17458;48.958;8.284;2022-10-30T15:49:35;100621.81;;;21.26;70.70
30708;BME280;17458;48.958;8.284;2022-10-30T15:52:23;100629.00;;;21.26;70.32
30708;BME280;17458;48.958;8.284;2022-10-30T15:55:12;100632.47;;;21.15;70.35
30708;BME280;17458;48.958;8.284;2022-10-30T15:58:01;100623.97;;;20.85;71.72
30708;BME280;17458;48.958;8.284;2022-10-30T16:00:58;100622.63;;;20.52;73.66
30708;BME280;17458;48.958;8.284;2022-10-30T16:03:50;100614.50;;;20.51;73.20
30708;BME280;17458;48.958;8.284;2022-10-30T16:06:35;100626.97;;;20.41;73.63
30708;BME280;17458;48.958;8.284;2022-10-30T16:09:20;100636.75;;;20.35;73.63
30708;BME280;17458;48.958;8.284;2022-10-30T16:12:05;100627.63;;;20.27;73.38
30708;BME280;17458;48.958;8.284;2022-10-30T16:14:49;100624.75;;;20.14;73.49
30708;BME280;17458;48.958;8.284;2022-10-30T16:17:34;100634.41;;;20.00;73.77
30708;BME280;17458;48.958;8.284;2022-10-30T16:20:17;100624.16;;;19.79;74.67
30708;BME280;17458;48.958;8.284;2022-10-30T16:23:03;100625.03;;;19.77;74.62
30708;BME280;17458;48.958;8.284;2022-10-30T16:25:53;100617.84;;;19.77;74.32
30708;BME280;17458;48.958;8.284;2022-10-30T16:28:46;100628.41;;;19.64;74.40
30708;BME280;17458;48.958;8.284;2022-10-30T16:31:33;100620.88;;;19.47;74.96
30708;BME280;17458;48.958;8.284;2022-10-30T16:34:29;100625.19;;;19.39;75.06
30708;BME280;17458;48.958;8.284;2022-10-30T16:37:21;100621.31;;;19.22;75.59
30708;BME280;17458;48.958;8.284;2022-10-30T16:40:15;100614.72;;;19.06;76.57
30708;BME280;17458;48.958;8.284;2022-10-30T16:43:03;100607.09;;;18.86;78.13
30708;BME280;17458;48.958;8.284;2022-10-30T16:45:48;100606.34;;;18.51;80.88
30708;BME280;17458;48.958;8.284;2022-10-30T16:48:34;100611.75;;;18.54;81.53